sensor_id;sensor_type;location;lat;lon;timestamp;pressure;altitude;pressure_sealevel;temperature;humidity
21863;BME280;11096;51.338;12.524;2023-10-31T00:01:50;98174.47;;;13.11;100.00
21863;BME280;11096;51.338;12.524;2023-10-31T00:04:16;98187.84;;;13.08;100.00
21863;BME280;11096;51.338;12.524;2023-10-31T00:06:41;98183.50;;;13.01;100.00
21863;BME280;11096;51.338;12.524;2023-10-31T00:09:07;98188.34;;;13.12;100.00
21863;BME280;11096;51.338;12.524;2023-10-31T00:11:32;98188.50;;;13.10;100.00
21863;BME280;11096;51.338;12.524;2023-10-31T00:13:57;98182.47;;;13.10;100.00
21863;BME280;11096;51.338;12.524;2023-10-31T00:16:23;98180.97;;;13.16;100.00
21863;BME280;11096;51.338;12.524;2023-10-31T00:18:48;98174.81;;;13.08;100.00
21863;BME280;11096;51.338;12.524;2023-10-31T00:21:14;98189.16;;;13.13;100.00
21863;BME280;11096;51.338;12.524;2023-10-31T00:23:46;98177.78;;;13.05;100.00
21863;BME280;11096;51.338;12.524;2023-10-31T00:26:12;98178.41;;;13.07;100.00
21863;BME280;11096;51.338;12.524;2023-10-31T00:28:37;98194.75;;;12.93;100.00
21863;BME280;11096;51.338;12.524;2023-10-31T00:31:03;98182.00;;;13.06;100.00
21863;BME280;11096;51.338;12.524;2023-10-31T00:33:29;98192.91;;;13.02;100.00
21863;BME280;11096;51.338;12.524;2023-10-31T00:35:55;98184.91;;;13.11;100.00
21863;BME280;11096;51.338;12.524;2023-10-31T00:38:20;98184.09;;;13.11;100.00
21863;BME280;11096;51.338;12.524;2023-10-31T00:40:46;98178.66;;;13.21;100.00
21863;BME280;11096;51.338;12.524;2023-10-31T00:43:11;98180.31;;;13.22;100.00
21863;BME280;11096;51.338;12.524;2023-10-31T00:45:37;98179.66;;;13.20;100.00
21863;BME280;11096;51.338;12.524;2023-10-31T00:48:02;98179.38;;;13.15;100.00
21863;BME280;11096;51.338;12.524;2023-10-31T00:50:28;98174.75;;;13.17;100.00
21863;BME280;11096;51.338;12.524;2023-10-31T00:52:54;98179.19;;;13.16;100.00
21863;BME280;11096;51.338;12.524;2023-10-31T00:55:19;98166.94;;;13.17;100.00
21863;BME280;11096;51.338;12.524;2023-10-31T00:57:45;98171.50;;;13.23;100.00
21863;BME280;11096;51.338;12.524;2023-10-31T01:00:10;98170.03;;;13.20;100.00
21863;BME280;11096;51.338;12.524;2023-10-31T01:02:36;98171.81;;;13.28;100.00
21863;BME280;11096;51.338;12.524;2023-10-31T01:05:01;98173.28;;;13.30;100.00
21863;BME280;11096;51.338;12.524;2023-10-31T01:07:27;98174.44;;;13.20;100.00
21863;BME280;11096;51.338;12.524;2023-10-31T01:09:52;98165.94;;;13.26;100.00
21863;BME280;11096;51.338;12.524;2023-10-31T01:12:17;98163.66;;;13.31;100.00
21863;BME280;11096;51.338;12.524;2023-10-31T01:14:43;98168.88;;;13.23;100.00
21863;BME280;11096;51.338;12.524;2023-10-31T01:17:08;98167.53;;;13.35;100.00
21863;BME280;11096;51.338;12.524;2023-10-31T01:19:34;98162.03;;;13.30;100.00
21863;BME280;11096;51.338;12.524;2023-10-31T01:21:59;98170.75;;;13.45;100.00
21863;BME280;11096;51.338;12.524;2023-10-31T01:24:25;98179.09;;;13.41;100.00
21863;BME280;11096;51.338;12.524;2023-10-31T01:26:50;98164.59;;;13.38;100.00
21863;BME280;11096;51.338;12.524;2023-10-31T01:29:15;98168.19;;;13.37;100.00
21863;BME280;11096;51.338;12.524;2023-10-31T01:31:41;98170.28;;;13.42;100.00
21863;BME280;11096;51.338;12.524;2023-10-31T01:34:07;98168.06;;;13.30;100.00
21863;BME280;11096;51.338;12.524;2023-10-31T01:36:33;98167.31;;;13.45;100.00
21863;BME280;11096;51.338;12.524;2023-10-31T01:38:58;98163.63;;;13.39;100.00
21863;BME280;11096;51.338;12.524;2023-10-31T01:41:24;98168.00;;;13.39;100.00
21863;BME280;11096;51.338;12.524;2023-10-31T01:43:49;98161.38;;;13.28;100.00
21863;BME280;11096;51.338;12.524;2023-10-31T01:46:15;98156.97;;;13.28;100.00
21863;BME280;11096;51.338;12.524;2023-10-31T01:48:40;98149.00;;;13.30;100.00
21863;BME280;11096;51.338;12.524;2023-10-31T01:51:06;98145.50;;;13.38;100.00
21863;BME280;11096;51.338;12.524;2023-10-31T01:53:34;98143.72;;;13.38;100.00
21863;BME280;11096;51.338;12.524;2023-10-31T01:56:01;98149.06;;;13.68;100.00
21863;BME280;11096;51.338;12.524;2023-10-31T01:58:36;98141.88;;;13.70;100.00
21863;BME280;11096;51.338;12.524;2023-10-31T02:01:02;98144.69;;;13.68;100.00
21863;BME280;11096;51.338;12.524;2023-10-31T02:03:28;98137.94;;;13.74;100.00
21863;BME280;11096;51.338;12.524;2023-10-31T02:05:54;98125.25;;;13.71;100.00
21863;BME280;11096;51.338;12.524;2023-10-31T02:08:20;98134.97;;;13.77;100.00
21863;BME280;11096;51.338;12.524;2023-10-31T02:10:45;98133.94;;;13.86;100.00
21863;BME280;11096;51.338;12.524;2023-10-31T02:13:15;98140.22;;;13.92;100.00
21863;BME280;11096;51.338;12.524;2023-10-31T02:15:41;98135.25;;;13.82;100.00
21863;BME280;11096;51.338;12.524;2023-10-31T02:18:07;98143.19;;;13.89;100.00
21863;BME280;11096;51.338;12.524;2023-10-31T02:20:33;98135.41;;;13.81;100.00
21863;BME280;11096;51.338;12.524;2023-10-31T02:22:59;98138.28;;;13.71;100.00
21863;BME280;11096;51.338;12.524;2023-10-31T02:25:24;98130.34;;;13.64;100.00
21863;BME280;11096;51.338;12.524;2023-10-31T02:27:50;98137.00;;;13.67;100.00
21863;BME280;11096;51.338;12.524;2023-10-31T02:30:15;98144.41;;;13.78;100.00
21863;BME280;11096;51.338;12.524;2023-10-31T02:32:41;98141.22;;;13.68;100.00
21863;BME280;11096;51.338;12.524;2023-10-31T02:35:07;98145.47;;;13.69;100.00
21863;BME280;11096;51.338;12.524;2023-10-31T02:37:33;98153.25;;;13.77;100.00
21863;BME280;11096;51.338;12.524;2023-10-31T02:39:59;98142.81;;;13.77;100.00
21863;BME280;11096;51.338;12.524;2023-10-31T02:42:25;98148.78;;;13.86;100.00
21863;BME280;11096;51.338;12.524;2023-10-31T02:44:51;98152.66;;;13.67;100.00
21863;BME280;11096;51.338;12.524;2023-10-31T02:47:16;98147.31;;;13.60;100.00
21863;BME280;11096;51.338;12.524;2023-10-31T02:49:42;98156.25;;;13.66;100.00
21863;BME280;11096;51.338;12.524;2023-10-31T02:52:07;98149.41;;;13.65;100.00
21863;BME280;11096;51.338;12.524;2023-10-31T02:54:33;98147.38;;;13.75;100.00
21863;BME280;11096;51.338;12.524;2023-10-31T02:56:58;98146.09;;;13.48;100.00
21863;BME280;11096;51.338;12.524;2023-10-31T02:59:24;98148.47;;;13.58;100.00
21863;BME280;11096;51.338;12.524;2023-10-31T03:01:49;98148.13;;;13.61;100.00
21863;BME280;11096;51.338;12.524;2023-10-31T03:04:15;98144.56;;;13.62;100.00
21863;BME280;11096;51.338;12.524;2023-10-31T03:06:41;98142.84;;;13.46;100.00
21863;BME280;11096;51.338;12.524;2023-10-31T03:09:07;98133.91;;;13.63;100.00
21863;BME280;11096;51.338;12.524;2023-10-31T03:11:32;98127.09;;;13.62;100.00
21863;BME280;11096;51.338;12.524;2023-10-31T03:13:58;98129.13;;;13.52;100.00
21863;BME280;11096;51.338;12.524;2023-10-31T03:16:23;98135.63;;;13.56;100.00
21863;BME280;11096;51.338;12.524;2023-10-31T03:18:49;98136.88;;;13.60;100.00
21863;BME280;11096;51.338;12.524;2023-10-31T03:21:15;98130.84;;;13.60;100.00
21863;BME280;11096;51.338;12.524;2023-10-31T03:23:47;98135.69;;;13.71;100.00
21863;BME280;11096;51.338;12.524;2023-10-31T03:26:13;98133.63;;;13.58;100.00
21863;BME280;11096;51.338;12.524;2023-10-31T03:28:38;98134.03;;;13.70;100.00
21863;BME280;11096;51.338;12.524;2023-10-31T03:31:04;98148.13;;;13.61;100.00
21863;BME280;11096;51.338;12.524;2023-10-31T03:33:29;98143.25;;;13.58;100.00
21863;BME280;11096;51.338;12.524;2023-10-31T03:35:55;98154.28;;;13.68;100.00
21863;BME280;11096;51.338;12.524;2023-10-31T03:38:20;98143.84;;;13.45;100.00
21863;BME280;11096;51.338;12.524;2023-10-31T03:40:46;98149.06;;;13.45;100.00
21863;BME280;11096;51.338;12.524;2023-10-31T03:43:11;98145.59;;;13.52;100.00
21863;BME280;11096;51.338;12.524;2023-10-31T03:45:37;98152.59;;;13.52;100.00
21863;BME280;11096;51.338;12.524;2023-10-31T03:48:02;98162.19;;;13.60;100.00
21863;BME280;11096;51.338;12.524;2023-10-31T03:50:28;98159.91;;;13.57;100.00
21863;BME280;11096;51.338;12.524;2023-10-31T03:52:53;98155.22;;;13.52;100.00
21863;BME280;11096;51.338;12.524;2023-10-31T03:55:18;98165.31;;;13.55;100.00
21863;BME280;11096;51.338;12.524;2023-10-31T03:57:44;98149.66;;;13.55;100.00
21863;BME280;11096;51.338;12.524;2023-10-31T04:00:10;98154.72;;;13.48;100.00
21863;BME280;11096;51.338;12.524;2023-10-31T04:02:36;98158.34;;;13.47;100.00
21863;BME280;11096;51.338;12.524;2023-10-31T04:05:02;98155.38;;;13.50;100.00
21863;BME280;11096;51.338;12.524;2023-10-31T04:07:28;98168.56;;;13.57;100.00
21863;BME280;11096;51.338;12.524;2023-10-31T04:09:53;98166.22;;;13.39;100.00
21863;BME280;11096;51.338;12.524;2023-10-31T04:12:19;98160.78;;;13.49;100.00
21863;BME280;11096;51.338;12.524;2023-10-31T04:14:45;98158.97;;;13.49;100.00
21863;BME280;11096;51.338;12.524;2023-10-31T04:17:10;98156.66;;;13.55;100.00
21863;BME280;11096;51.338;12.524;2023-10-31T04:19:36;98161.47;;;13.43;100.00
21863;BME280;11096;51.338;12.524;2023-10-31T04:22:02;98164.56;;;13.46;100.00
21863;BME280;11096;51.338;12.524;2023-10-31T04:24:28;98158.72;;;13.36;100.00
21863;BME280;11096;51.338;12.524;2023-10-31T04:26:53;98165.47;;;13.53;100.00
21863;BME280;11096;51.338;12.524;2023-10-31T04:29:18;98164.50;;;13.55;100.00
21863;BME280;11096;51.338;12.524;2023-10-31T04:31:44;98150.41;;;13.64;100.00
21863;BME280;11096;51.338;12.524;2023-10-31T04:34:10;98159.63;;;13.51;100.00
21863;BME280;11096;51.338;12.524;2023-10-31T04:36:35;98173.66;;;13.50;100.00
21863;BME280;11096;51.338;12.524;2023-10-31T04:39:00;98160.88;;;13.56;100.00
21863;BME280;11096;51.338;12.524;2023-10-31T04:41:26;98158.00;;;13.50;100.00
21863;BME280;11096;51.338;12.524;2023-10-31T04:43:51;98149.13;;;13.60;100.00
21863;BME280;11096;51.338;12.524;2023-10-31T04:46:16;98149.34;;;13.50;100.00
21863;BME280;11096;51.338;12.524;2023-10-31T04:48:42;98151.84;;;13.43;100.00
21863;BME280;11096;51.338;12.524;2023-10-31T04:51:07;98142.34;;;13.50;100.00
21863;BME280;11096;51.338;12.524;2023-10-31T04:53:33;98152.19;;;13.40;100.00
21863;BME280;11096;51.338;12.524;2023-10-31T04:55:59;98156.13;;;13.36;100.00
21863;BME280;11096;51.338;12.524;2023-10-31T04:58:25;98155.22;;;13.52;100.00
21863;BME280;11096;51.338;12.524;2023-10-31T05:00:50;98156.72;;;13.46;100.00
21863;BME280;11096;51.338;12.524;2023-10-31T05:03:15;98162.63;;;13.40;100.00
21863;BME280;11096;51.338;12.524;2023-10-31T05:05:41;98164.22;;;13.49;100.00
21863;BME280;11096;51.338;12.524;2023-10-31T05:08:06;98167.50;;;13.43;100.00
21863;BME280;11096;51.338;12.524;2023-10-31T05:10:32;98158.06;;;13.42;100.00
21863;BME280;11096;51.338;12.524;2023-10-31T05:12:57;98156.94;;;13.37;100.00
21863;BME280;11096;51.338;12.524;2023-10-31T05:15:23;98156.09;;;13.44;100.00
21863;BME280;11096;51.338;12.524;2023-10-31T05:17:48;98156.53;;;13.48;100.00
21863;BME280;11096;51.338;12.524;2023-10-31T05:20:13;98166.53;;;13.36;100.00
21863;BME280;11096;51.338;12.524;2023-10-31T05:22:40;98162.69;;;13.32;100.00
21863;BME280;11096;51.338;12.524;2023-10-31T05:25:06;98155.31;;;13.36;100.00
21863;BME280;11096;51.338;12.524;2023-10-31T05:27:32;98164.78;;;13.37;100.00
21863;BME280;11096;51.338;12.524;2023-10-31T05:29:57;98166.28;;;13.23;100.00
21863;BME280;11096;51.338;12.524;2023-10-31T05:32:22;98176.66;;;12.92;100.00
21863;BME280;11096;51.338;12.524;2023-10-31T05:34:48;98184.91;;;13.11;100.00
21863;BME280;11096;51.338;12.524;2023-10-31T05:37:13;98184.03;;;12.88;100.00
21863;BME280;11096;51.338;12.524;2023-10-31T05:39:39;98193.22;;;12.67;100.00
21863;BME280;11096;51.338;12.524;2023-10-31T05:42:04;98193.78;;;12.94;100.00
21863;BME280;11096;51.338;12.524;2023-10-31T05:44:29;98198.78;;;13.12;100.00
21863;BME280;11096;51.338;12.524;2023-10-31T05:46:55;98205.50;;;12.98;100.00
21863;BME280;11096;51.338;12.524;2023-10-31T05:49:20;98204.50;;;12.99;100.00
21863;BME280;11096;51.338;12.524;2023-10-31T05:51:52;98206.59;;;13.12;100.00
21863;BME280;11096;51.338;12.524;2023-10-31T05:54:17;98208.16;;;12.82;100.00
21863;BME280;11096;51.338;12.524;2023-10-31T05:56:43;98214.69;;;12.78;100.00
21863;BME280;11096;51.338;12.524;2023-10-31T05:59:10;98215.31;;;12.88;100.00
21863;BME280;11096;51.338;12.524;2023-10-31T06:01:35;98213.66;;;12.87;100.00
21863;BME280;11096;51.338;12.524;2023-10-31T06:04:01;98212.75;;;12.63;100.00
21863;BME280;11096;51.338;12.524;2023-10-31T06:06:26;98228.50;;;12.86;100.00
21863;BME280;11096;51.338;12.524;2023-10-31T06:08:51;98227.50;;;12.96;100.00
21863;BME280;11096;51.338;12.524;2023-10-31T06:11:17;98232.25;;;12.92;100.00
21863;BME280;11096;51.338;12.524;2023-10-31T06:13:42;98232.09;;;12.85;100.00
21863;BME280;11096;51.338;12.524;2023-10-31T06:16:08;98232.75;;;12.79;100.00
21863;BME280;11096;51.338;12.524;2023-10-31T06:18:33;98240.75;;;12.78;100.00
21863;BME280;11096;51.338;12.524;2023-10-31T06:20:59;98244.97;;;12.79;100.00
21863;BME280;11096;51.338;12.524;2023-10-31T06:23:25;98242.88;;;12.82;100.00
21863;BME280;11096;51.338;12.524;2023-10-31T06:25:50;98250.22;;;12.71;100.00
21863;BME280;11096;51.338;12.524;2023-10-31T06:28:15;98265.38;;;12.75;100.00
21863;BME280;11096;51.338;12.524;2023-10-31T06:30:41;98264.38;;;12.76;100.00
21863;BME280;11096;51.338;12.524;2023-10-31T06:33:06;98274.00;;;12.76;100.00
21863;BME280;11096;51.338;12.524;2023-10-31T06:35:33;98284.41;;;12.59;100.00
21863;BME280;11096;51.338;12.524;2023-10-31T06:37:59;98283.13;;;12.80;100.00
21863;BME280;11096;51.338;12.524;2023-10-31T06:40:25;98293.88;;;12.68;100.00
21863;BME280;11096;51.338;12.524;2023-10-31T06:42:51;98287.34;;;12.64;100.00
21863;BME280;11096;51.338;12.524;2023-10-31T06:45:16;98288.66;;;12.60;100.00
21863;BME280;11096;51.338;12.524;2023-10-31T06:47:42;98293.06;;;12.43;100.00
21863;BME280;11096;51.338;12.524;2023-10-31T06:50:08;98306.09;;;12.43;100.00
21863;BME280;11096;51.338;12.524;2023-10-31T06:52:33;98314.88;;;12.26;100.00
21863;BME280;11096;51.338;12.524;2023-10-31T06:54:58;98313.41;;;12.23;100.00
21863;BME280;11096;51.338;12.524;2023-10-31T06:57:24;98310.63;;;12.17;100.00
21863;BME280;11096;51.338;12.524;2023-10-31T06:59:49;98324.63;;;12.16;100.00
21863;BME280;11096;51.338;12.524;2023-10-31T07:02:15;98330.13;;;12.05;100.00
21863;BME280;11096;51.338;12.524;2023-10-31T07:04:40;98334.84;;;12.09;100.00
21863;BME280;11096;51.338;12.524;2023-10-31T07:07:06;98342.56;;;11.85;100.00
21863;BME280;11096;51.338;12.524;2023-10-31T07:09:31;98352.97;;;11.76;100.00
21863;BME280;11096;51.338;12.524;2023-10-31T07:11:57;98357.78;;;12.06;100.00
21863;BME280;11096;51.338;12.524;2023-10-31T07:14:22;98352.91;;;12.02;100.00
21863;BME280;11096;51.338;12.524;2023-10-31T07:16:47;98350.44;;;11.93;100.00
21863;BME280;11096;51.338;12.524;2023-10-31T07:19:14;98358.91;;;12.03;100.00
21863;BME280;11096;51.338;12.524;2023-10-31T07:21:39;98344.59;;;11.99;100.00
21863;BME280;11096;51.338;12.524;2023-10-31T07:24:05;98354.88;;;12.09;100.00
21863;BME280;11096;51.338;12.524;2023-10-31T07:26:34;98359.56;;;12.05;100.00
21863;BME280;11096;51.338;12.524;2023-10-31T07:28:59;98359.25;;;12.08;100.00
21863;BME280;11096;51.338;12.524;2023-10-31T07:31:25;98368.38;;;12.04;100.00
21863;BME280;11096;51.338;12.524;2023-10-31T07:33:50;98366.84;;;11.93;100.00
21863;BME280;11096;51.338;12.524;2023-10-31T07:36:15;98368.63;;;12.43;100.00
21863;BME280;11096;51.338;12.524;2023-10-31T07:38:41;98366.66;;;12.62;95.43
21863;BME280;11096;51.338;12.524;2023-10-31T07:41:07;98369.03;;;13.45;90.47
21863;BME280;11096;51.338;12.524;2023-10-31T07:43:32;98380.47;;;13.36;85.59
21863;BME280;11096;51.338;12.524;2023-10-31T07:45:58;98375.91;;;13.46;82.17
21863;BME280;11096;51.338;12.524;2023-10-31T07:48:23;98396.97;;;13.84;81.11
21863;BME280;11096;51.338;12.524;2023-10-31T07:50:48;98395.69;;;13.80;79.40
21863;BME280;11096;51.338;12.524;2023-10-31T07:53:14;98397.03;;;13.76;78.17
21863;BME280;11096;51.338;12.524;2023-10-31T07:55:39;98410.75;;;13.62;78.04
21863;BME280;11096;51.338;12.524;2023-10-31T07:58:05;98410.03;;;13.84;76.79
21863;BME280;11096;51.338;12.524;2023-10-31T08:00:30;98414.22;;;14.02;76.62
21863;BME280;11096;51.338;12.524;2023-10-31T08:02:56;98410.56;;;13.71;74.72
21863;BME280;11096;51.338;12.524;2023-10-31T08:05:21;98420.13;;;13.87;75.53
21863;BME280;11096;51.338;12.524;2023-10-31T08:07:47;98422.78;;;13.79;74.97
21863;BME280;11096;51.338;12.524;2023-10-31T08:10:12;98421.19;;;14.09;74.87
21863;BME280;11096;51.338;12.524;2023-10-31T08:12:37;98428.50;;;13.74;73.62
21863;BME280;11096;51.338;12.524;2023-10-31T08:15:03;98427.00;;;13.88;73.49
21863;BME280;11096;51.338;12.524;2023-10-31T08:17:29;98428.88;;;14.11;73.14
21863;BME280;11096;51.338;12.524;2023-10-31T08:19:54;98429.13;;;14.24;72.54
21863;BME280;11096;51.338;12.524;2023-10-31T08:22:20;98419.94;;;13.97;72.13
21863;BME280;11096;51.338;12.524;2023-10-31T08:24:45;98423.13;;;14.15;72.63
21863;BME280;11096;51.338;12.524;2023-10-31T08:27:10;98426.91;;;14.05;71.44
21863;BME280;11096;51.338;12.524;2023-10-31T08:29:37;98424.09;;;13.83;71.56
21863;BME280;11096;51.338;12.524;2023-10-31T08:32:05;98443.81;;;13.86;72.10
21863;BME280;11096;51.338;12.524;2023-10-31T08:34:30;98433.47;;;14.01;72.32
21863;BME280;11096;51.338;12.524;2023-10-31T08:36:56;98451.78;;;14.01;72.03
21863;BME280;11096;51.338;12.524;2023-10-31T08:39:22;98446.09;;;13.81;71.90
21863;BME280;11096;51.338;12.524;2023-10-31T08:41:55;98449.19;;;13.84;71.44
21863;BME280;11096;51.338;12.524;2023-10-31T08:44:21;98449.13;;;14.09;71.16
21863;BME280;11096;51.338;12.524;2023-10-31T08:46:47;98458.44;;;14.03;71.64
21863;BME280;11096;51.338;12.524;2023-10-31T08:49:13;98451.22;;;14.05;70.30
21863;BME280;11096;51.338;12.524;2023-10-31T08:51:39;98457.50;;;14.35;70.39
21863;BME280;11096;51.338;12.524;2023-10-31T08:54:05;98460.88;;;14.98;69.31
21863;BME280;11096;51.338;12.524;2023-10-31T08:56:30;98444.19;;;15.37;67.89
21863;BME280;11096;51.338;12.524;2023-10-31T08:58:56;98451.25;;;15.37;66.79
21863;BME280;11096;51.338;12.524;2023-10-31T09:01:21;98450.88;;;15.78;65.42
21863;BME280;11096;51.338;12.524;2023-10-31T09:03:47;98454.41;;;16.36;64.85
21863;BME280;11096;51.338;12.524;2023-10-31T09:06:12;98462.22;;;18.83;59.33
21863;BME280;11096;51.338;12.524;2023-10-31T09:08:38;98439.00;;;20.56;52.25
21863;BME280;11096;51.338;12.524;2023-10-31T09:11:04;98451.47;;;18.23;53.62
21863;BME280;11096;51.338;12.524;2023-10-31T09:13:30;98473.38;;;16.53;60.14
21863;BME280;11096;51.338;12.524;2023-10-31T09:15:58;98467.91;;;17.34;59.37
21863;BME280;11096;51.338;12.524;2023-10-31T09:18:23;98469.59;;;17.20;58.74
21863;BME280;11096;51.338;12.524;2023-10-31T09:20:49;98466.38;;;15.94;59.78
21863;BME280;11096;51.338;12.524;2023-10-31T09:23:15;98475.56;;;15.60;61.82
21863;BME280;11096;51.338;12.524;2023-10-31T09:25:40;98497.56;;;16.04;62.40
21863;BME280;11096;51.338;12.524;2023-10-31T09:28:06;98489.16;;;15.79;62.72
21863;BME280;11096;51.338;12.524;2023-10-31T09:30:31;98488.19;;;14.96;64.58
21863;BME280;11096;51.338;12.524;2023-10-31T09:32:56;98496.91;;;14.57;65.25
21863;BME280;11096;51.338;12.524;2023-10-31T09:35:22;98492.13;;;14.29;66.72
21863;BME280;11096;51.338;12.524;2023-10-31T09:37:47;98483.03;;;14.17;67.34
21863;BME280;11096;51.338;12.524;2023-10-31T09:40:14;98482.28;;;16.59;65.92
21863;BME280;11096;51.338;12.524;2023-10-31T09:42:40;98467.50;;;20.79;53.04
21863;BME280;11096;51.338;12.524;2023-10-31T09:45:05;98449.66;;;23.68;46.27
21863;BME280;11096;51.338;12.524;2023-10-31T09:47:31;98455.69;;;24.16;45.45
21863;BME280;11096;51.338;12.524;2023-10-31T09:49:58;98447.22;;;23.90;44.73
21863;BME280;11096;51.338;12.524;2023-10-31T09:52:25;98459.47;;;21.93;44.34
21863;BME280;11096;51.338;12.524;2023-10-31T09:54:52;98452.41;;;23.26;42.71
21863;BME280;11096;51.338;12.524;2023-10-31T09:57:18;98463.22;;;22.83;44.44
21863;BME280;11096;51.338;12.524;2023-10-31T09:59:44;98445.44;;;24.19;40.86
21863;BME280;11096;51.338;12.524;2023-10-31T10:02:10;98450.06;;;24.53;41.69
21863;BME280;11096;51.338;12.524;2023-10-31T10:04:37;98439.56;;;24.75;40.56
21863;BME280;11096;51.338;12.524;2023-10-31T10:07:03;98440.56;;;25.53;39.87
21863;BME280;11096;51.338;12.524;2023-10-31T10:09:30;98435.38;;;25.63;37.17
21863;BME280;11096;51.338;12.524;2023-10-31T10:11:59;98428.94;;;24.17;38.59
21863;BME280;11096;51.338;12.524;2023-10-31T10:14:25;98435.97;;;26.31;37.92
21863;BME280;11096;51.338;12.524;2023-10-31T10:16:51;98428.56;;;23.73;38.48
21863;BME280;11096;51.338;12.524;2023-10-31T10:19:18;98433.59;;;21.95;42.15
21863;BME280;11096;51.338;12.524;2023-10-31T10:21:54;98446.13;;;21.38;44.63
21863;BME280;11096;51.338;12.524;2023-10-31T10:24:21;98441.19;;;25.10;39.96
21863;BME280;11096;51.338;12.524;2023-10-31T10:26:47;98438.13;;;23.51;40.01
21863;BME280;11096;51.338;12.524;2023-10-31T10:29:14;98443.50;;;18.51;49.10
21863;BME280;11096;51.338;12.524;2023-10-31T10:31:40;98450.19;;;16.93;52.96
21863;BME280;11096;51.338;12.524;2023-10-31T10:34:06;98442.31;;;16.71;54.77
21863;BME280;11096;51.338;12.524;2023-10-31T10:36:33;98454.31;;;15.55;57.04
21863;BME280;11096;51.338;12.524;2023-10-31T10:38:59;98454.56;;;15.83;57.59
21863;BME280;11096;51.338;12.524;2023-10-31T10:41:26;98467.88;;;15.44;58.09
21863;BME280;11096;51.338;12.524;2023-10-31T10:43:58;98459.16;;;15.81;59.20
21863;BME280;11096;51.338;12.524;2023-10-31T10:46:30;98470.56;;;16.03;58.59
21863;BME280;11096;51.338;12.524;2023-10-31T10:48:58;98471.19;;;15.76;58.35
21863;BME280;11096;51.338;12.524;2023-10-31T10:51:29;98456.59;;;17.96;53.87
21863;BME280;11096;51.338;12.524;2023-10-31T10:54:00;98440.06;;;18.02;53.33
21863;BME280;11096;51.338;12.524;2023-10-31T10:56:34;98450.25;;;18.87;51.67
21863;BME280;11096;51.338;12.524;2023-10-31T10:59:10;98450.06;;;17.51;51.98
21863;BME280;11096;51.338;12.524;2023-10-31T11:01:38;98460.66;;;17.36;53.89
21863;BME280;11096;51.338;12.524;2023-10-31T11:04:05;98482.72;;;17.70;54.86
21863;BME280;11096;51.338;12.524;2023-10-31T11:06:31;98484.03;;;17.80;53.77
21863;BME280;11096;51.338;12.524;2023-10-31T11:08:57;98495.28;;;17.46;54.18
21863;BME280;11096;51.338;12.524;2023-10-31T11:11:24;98503.84;;;16.90;56.20
21863;BME280;11096;51.338;12.524;2023-10-31T11:13:50;98512.78;;;16.60;57.29
21863;BME280;11096;51.338;12.524;2023-10-31T11:16:34;98519.31;;;16.34;57.52
21863;BME280;11096;51.338;12.524;2023-10-31T11:19:03;98518.41;;;15.97;58.02
21863;BME280;11096;51.338;12.524;2023-10-31T11:21:30;98496.91;;;16.02;58.31
21863;BME280;11096;51.338;12.524;2023-10-31T11:23:59;98496.91;;;16.02;57.40
21863;BME280;11096;51.338;12.524;2023-10-31T11:26:29;98510.59;;;16.27;58.12
21863;BME280;11096;51.338;12.524;2023-10-31T11:29:05;98515.47;;;16.15;58.04
21863;BME280;11096;51.338;12.524;2023-10-31T11:31:32;98521.06;;;15.59;59.43
21863;BME280;11096;51.338;12.524;2023-10-31T11:34:01;98529.81;;;15.52;59.24
21863;BME280;11096;51.338;12.524;2023-10-31T11:36:30;98525.00;;;15.55;59.07
21863;BME280;11096;51.338;12.524;2023-10-31T11:39:13;98538.31;;;15.31;59.76
21863;BME280;11096;51.338;12.524;2023-10-31T11:41:39;98548.19;;;15.20;59.99
21863;BME280;11096;51.338;12.524;2023-10-31T11:44:04;98548.75;;;14.37;61.80
21863;BME280;11096;51.338;12.524;2023-10-31T11:46:30;98542.59;;;14.69;61.35
21863;BME280;11096;51.338;12.524;2023-10-31T11:48:56;98536.91;;;14.66;62.34
21863;BME280;11096;51.338;12.524;2023-10-31T11:51:22;98532.88;;;14.47;61.76
21863;BME280;11096;51.338;12.524;2023-10-31T11:53:50;98542.38;;;15.10;60.70
21863;BME280;11096;51.338;12.524;2023-10-31T11:56:16;98543.41;;;15.01;60.78
21863;BME280;11096;51.338;12.524;2023-10-31T11:58:41;98547.25;;;15.13;60.68
21863;BME280;11096;51.338;12.524;2023-10-31T12:01:08;98559.38;;;15.14;60.78
21863;BME280;11096;51.338;12.524;2023-10-31T12:03:42;98564.69;;;14.98;64.94
21863;BME280;11096;51.338;12.524;2023-10-31T12:06:09;98579.13;;;15.40;63.55
21863;BME280;11096;51.338;12.524;2023-10-31T12:08:42;98586.88;;;15.33;61.47
21863;BME280;11096;51.338;12.524;2023-10-31T12:11:11;98595.00;;;15.15;62.42
21863;BME280;11096;51.338;12.524;2023-10-31T12:13:41;98598.25;;;14.86;63.87
21863;BME280;11096;51.338;12.524;2023-10-31T12:16:09;98594.53;;;14.80;63.02
21863;BME280;11096;51.338;12.524;2023-10-31T12:18:35;98611.13;;;14.96;63.00
21863;BME280;11096;51.338;12.524;2023-10-31T12:21:02;98596.38;;;15.03;62.15
21863;BME280;11096;51.338;12.524;2023-10-31T12:23:27;98594.91;;;15.00;61.99
21863;BME280;11096;51.338;12.524;2023-10-31T12:25:54;98595.53;;;16.47;59.55
21863;BME280;11096;51.338;12.524;2023-10-31T12:28:24;98599.88;;;17.64;56.25
21863;BME280;11096;51.338;12.524;2023-10-31T12:30:51;98602.13;;;17.46;55.22
21863;BME280;11096;51.338;12.524;2023-10-31T12:33:20;98593.38;;;17.38;54.10
21863;BME280;11096;51.338;12.524;2023-10-31T12:35:47;98602.41;;;16.48;55.63
21863;BME280;11096;51.338;12.524;2023-10-31T12:38:14;98625.81;;;16.35;57.01